createdAt,value
2023-03-01T00:02:29.994Z,43.75
2023-03-01T00:04:59.632Z,44.15
2023-03-01T00:07:31.781Z,44.65
2023-03-01T00:10:03.138Z,42.45
2023-03-01T00:12:46.970Z,41.25
2023-03-01T00:18:06.491Z,42.78
2023-03-01T00:20:35.008Z,40.83
2023-03-01T00:23:26.533Z,40.35
2023-03-01T00:25:57.699Z,47.00
2023-03-01T00:28:26.835Z,45.30
2023-03-01T00:30:57.301Z,47.08
2023-03-01T00:33:42.161Z,43.63
2023-03-01T00:36:13.726Z,47.10
2023-03-01T00:38:45.083Z,47.08
2023-03-01T00:44:02.295Z,49.92
2023-03-01T00:46:34.810Z,47.17
2023-03-01T00:49:11.963Z,49.17
2023-03-01T00:51:42.527Z,51.15
2023-03-01T00:54:12.124Z,52.08
2023-03-01T00:56:45.091Z,65.13
2023-03-01T00:59:18.424Z,53.08
2023-03-01T01:01:47.245Z,53.33
2023-03-01T01:04:17.130Z,49.15
2023-03-01T01:06:54.099Z,54.05
2023-03-01T01:09:26.420Z,55.92
2023-03-01T01:11:59.507Z,58.55
2023-03-01T01:14:32.309Z,66.30
2023-03-01T01:17:04.309Z,58.38
2023-03-01T01:19:36.821Z,58.67
2023-03-01T01:22:07.553Z,64.18
2023-03-01T01:24:35.344Z,64.10
2023-03-01T01:27:04.814Z,63.28
2023-03-01T01:29:33.172Z,63.40
2023-03-01T01:32:03.092Z,59.88
2023-03-01T01:34:35.215Z,61.00
2023-03-01T01:37:10.929Z,63.03
2023-03-01T01:39:40.189Z,69.28
2023-03-01T01:42:20.470Z,73.82
2023-03-01T01:45:22.872Z,60.47
2023-03-01T01:48:08.983Z,56.97
2023-03-01T01:50:43.359Z,52.88
2023-03-01T01:53:22.089Z,58.20
2023-03-01T01:55:59.182Z,67.03
2023-03-01T01:58:31.550Z,66.35
2023-03-01T02:01:05.586Z,67.05
2023-03-01T02:03:44.238Z,67.45
2023-03-01T02:06:31.170Z,74.63
2023-03-01T02:09:13.445Z,60.50
2023-03-01T02:11:45.758Z,63.03
2023-03-01T02:14:17.126Z,59.63
2023-03-01T02:16:51.069Z,68.88
2023-03-01T02:19:53.959Z,68.13
2023-03-01T02:22:36.357Z,66.47
2023-03-01T02:25:13.295Z,63.78
2023-03-01T02:28:12.691Z,74.45
2023-03-01T02:31:10.752Z,69.95
2023-03-01T02:33:44.212Z,64.07
2023-03-01T02:36:25.952Z,70.38
2023-03-01T02:38:58.429Z,65.20
2023-03-01T02:41:36.708Z,70.07
2023-03-01T02:44:09.541Z,67.32
2023-03-01T02:46:57.554Z,68.05
2023-03-01T02:49:30.102Z,65.13
2023-03-01T02:52:16.715Z,66.70
2023-03-01T02:55:09.817Z,68.68
2023-03-01T02:57:48.054Z,55.00
2023-03-01T03:00:24.059Z,71.32
2023-03-01T03:02:58.130Z,68.97
2023-03-01T03:05:32.216Z,68.88
2023-03-01T03:08:11.158Z,75.38
2023-03-01T03:10:42.521Z,74.43
2023-03-01T03:13:15.572Z,80.32
2023-03-01T03:18:21.555Z,79.40
2023-03-01T03:20:56.529Z,81.40
2023-03-01T03:26:10.470Z,78.38
2023-03-01T03:28:42.341Z,77.40
2023-03-01T03:31:12.961Z,78.85
2023-03-01T03:33:41.968Z,89.97
2023-03-01T03:36:15.287Z,75.97
2023-03-01T03:38:58.998Z,84.38
2023-03-01T03:41:32.170Z,88.13
2023-03-01T03:44:05.994Z,82.95
2023-03-01T03:49:22.287Z,86.18
2023-03-01T03:51:59.142Z,86.45
2023-03-01T03:54:31.610Z,89.72
2023-03-01T03:57:01.074Z,87.45
2023-03-01T03:59:31.122Z,88.35
2023-03-01T04:02:03.300Z,88.20
2023-03-01T04:04:33.391Z,84.40
2023-03-01T04:07:03.641Z,85.85
2023-03-01T04:09:34.495Z,85.25
2023-03-01T04:12:04.745Z,86.40
2023-03-01T04:14:41.992Z,85.38
2023-03-01T04:17:19.775Z,83.93
2023-03-01T04:19:54.034Z,83.97
2023-03-01T04:22:28.931Z,86.40
2023-03-01T04:25:07.149Z,88.20
2023-03-01T04:27:38.005Z,90.80
2023-03-01T04:30:12.133Z,93.40
2023-03-01T04:32:42.128Z,89.82
2023-03-01T04:35:10.571Z,93.72
2023-03-01T04:37:53.049Z,95.88
2023-03-01T04:40:23.654Z,97.15
2023-03-01T04:43:01.714Z,102.70
2023-03-01T04:45:37.436Z,94.00
2023-03-01T04:48:08.446Z,110.45
2023-03-01T04:50:39.340Z,100.28
2023-03-01T04:53:08.010Z,117.28
2023-03-01T04:55:37.387Z,116.05
2023-03-01T04:58:11.966Z,112.03
2023-03-01T05:00:47.329Z,107.90
2023-03-01T05:03:27.810Z,105.40
2023-03-01T05:06:00.822Z,107.40
2023-03-01T05:08:34.108Z,101.85
2023-03-01T05:11:13.752Z,105.00
2023-03-01T05:13:50.057Z,109.47
2023-03-01T05:16:22.125Z,103.32
2023-03-01T05:18:57.907Z,101.95
2023-03-01T05:21:28.656Z,97.57
2023-03-01T05:24:05.450Z,107.25
2023-03-01T05:26:35.179Z,106.88
2023-03-01T05:29:04.796Z,110.85
2023-03-01T05:31:47.038Z,118.72
2023-03-01T05:34:18.402Z,127.70
2023-03-01T05:36:48.838Z,122.25
2023-03-01T05:39:24.028Z,121.68
2023-03-01T05:42:02.589Z,120.45
2023-03-01T05:44:34.751Z,123.88
2023-03-01T05:47:04.520Z,113.82
2023-03-01T05:49:35.223Z,118.03
2023-03-01T05:52:10.410Z,118.28
2023-03-01T05:54:46.089Z,119.68
2023-03-01T05:57:17.147Z,121.22
2023-03-01T05:59:47.691Z,118.03
2023-03-01T06:02:19.413Z,122.15
2023-03-01T06:04:50.346Z,88.20
2023-03-01T06:07:20.820Z,126.57
2023-03-01T06:09:53.297Z,109.47
2023-03-01T06:12:27.083Z,117.28
2023-03-01T06:14:58.609Z,117.25
2023-03-01T06:17:32.834Z,100.88
2023-03-01T06:20:03.733Z,94.55
2023-03-01T06:22:36.386Z,104.45
2023-03-01T06:25:10.100Z,93.97
2023-03-01T06:27:41.991Z,73.38
2023-03-01T06:30:18.425Z,90.63
2023-03-01T06:32:59.767Z,102.47
2023-03-01T06:35:33.692Z,96.80
2023-03-01T06:38:07.105Z,93.53
2023-03-01T06:40:37.202Z,93.00
2023-03-01T06:43:17.187Z,88.97
2023-03-01T06:45:47.889Z,89.95
2023-03-01T06:48:20.066Z,94.05
2023-03-01T06:50:51.311Z,96.57
2023-03-01T06:53:20.409Z,87.90
2023-03-01T06:55:54.665Z,97.20
2023-03-01T06:58:24.912Z,88.85
2023-03-01T07:00:59.109Z,102.10
2023-03-01T07:03:28.991Z,114.45
2023-03-01T07:06:07.243Z,105.70
2023-03-01T07:08:42.918Z,72.73
2023-03-01T07:11:13.496Z,93.47
2023-03-01T07:13:43.888Z,92.15
2023-03-01T07:16:21.890Z,87.25
2023-03-01T07:18:52.886Z,85.70
2023-03-01T07:21:33.690Z,74.20
2023-03-01T07:24:02.930Z,81.03
2023-03-01T07:26:40.525Z,75.75
2023-03-01T07:29:17.377Z,83.00
2023-03-01T07:31:46.358Z,86.82
2023-03-01T07:34:13.931Z,105.80
2023-03-01T07:36:48.133Z,82.80
2023-03-01T07:39:21.079Z,92.22
2023-03-01T07:41:58.008Z,106.55
2023-03-01T07:44:32.593Z,212.80
2023-03-01T07:47:06.221Z,153.27
2023-03-01T07:49:37.187Z,106.13
2023-03-01T07:52:16.732Z,81.55
2023-03-01T07:54:49.200Z,70.78
2023-03-01T07:57:19.781Z,47.93
2023-03-01T07:59:52.442Z,41.83
2023-03-01T08:02:25.379Z,46.55
2023-03-01T08:04:56.577Z,33.10
2023-03-01T08:07:27.487Z,25.45
2023-03-01T08:09:58.881Z,26.38
2023-03-01T08:12:31.862Z,27.08
2023-03-01T08:15:01.404Z,20.55
2023-03-01T08:17:30.997Z,18.73
2023-03-01T08:20:03.314Z,21.90
2023-03-01T08:22:36.405Z,19.05
2023-03-01T08:25:12.000Z,21.17
2023-03-01T08:27:43.606Z,19.00
2023-03-01T08:30:14.825Z,19.20
2023-03-01T08:32:46.651Z,17.38
2023-03-01T08:35:15.188Z,17.50
2023-03-01T08:37:46.040Z,16.60
2023-03-01T08:40:18.688Z,20.20
2023-03-01T08:42:51.162Z,18.17
2023-03-01T08:45:38.229Z,15.77
2023-03-01T08:48:08.309Z,15.65
2023-03-01T08:50:42.462Z,11.60
2023-03-01T08:53:10.955Z,15.70
2023-03-01T08:55:43.004Z,18.35
2023-03-01T08:58:13.251Z,13.48
2023-03-01T09:00:43.685Z,12.48
2023-03-01T09:03:17.262Z,14.02
2023-03-01T09:05:49.908Z,11.25
2023-03-01T09:08:22.076Z,11.35
2023-03-01T09:10:58.242Z,12.43
2023-03-01T09:13:33.276Z,7.55
2023-03-01T09:16:08.957Z,12.38
2023-03-01T09:18:38.585Z,8.65
2023-03-01T09:21:18.309Z,9.68
2023-03-01T09:23:52.629Z,11.70
2023-03-01T09:26:28.404Z,10.07
2023-03-01T09:29:01.903Z,9.18
2023-03-01T09:31:31.986Z,16.75
2023-03-01T09:34:06.480Z,12.35
2023-03-01T09:36:35.532Z,12.98
2023-03-01T09:39:12.016Z,6.80
2023-03-01T09:42:06.071Z,8.35
2023-03-01T09:44:49.183Z,8.93
2023-03-01T09:47:39.035Z,11.38
2023-03-01T09:50:18.325Z,8.77
2023-03-01T09:53:10.737Z,11.57
2023-03-01T09:55:59.915Z,11.18
2023-03-01T09:58:52.077Z,10.23
2023-03-01T10:01:48.189Z,11.30
2023-03-01T10:04:42.609Z,6.57
2023-03-01T10:07:49.993Z,9.57
2023-03-01T10:10:44.085Z,9.10
2023-03-01T10:13:57.804Z,9.32
2023-03-01T10:16:56.630Z,8.25
2023-03-01T10:19:43.552Z,10.20
2023-03-01T10:22:36.536Z,11.35
2023-03-01T10:25:11.611Z,21.70
2023-03-01T10:27:55.903Z,26.98
2023-03-01T10:30:47.938Z,8.67
2023-03-01T10:33:30.486Z,9.70
2023-03-01T10:35:58.939Z,9.05
2023-03-01T10:38:30.447Z,7.28
2023-03-01T10:41:10.742Z,8.38
2023-03-01T10:43:49.824Z,8.68
2023-03-01T10:46:40.167Z,9.63
2023-03-01T10:49:25.486Z,4.95
2023-03-01T10:51:59.090Z,6.63
2023-03-01T10:54:32.738Z,7.90
2023-03-01T10:57:09.546Z,5.70
2023-03-01T11:00:02.306Z,8.38
2023-03-01T11:02:38.220Z,6.43
2023-03-01T11:05:25.484Z,8.32
2023-03-01T11:08:02.180Z,8.27
2023-03-01T11:10:54.969Z,5.32
2023-03-01T11:13:40.432Z,7.95
2023-03-01T11:16:26.294Z,9.57
2023-03-01T11:19:25.552Z,10.55
2023-03-01T11:22:27.837Z,9.70
2023-03-01T11:25:10.121Z,7.18
2023-03-01T11:27:47.497Z,5.07
2023-03-01T11:30:40.782Z,7.28
2023-03-01T11:33:43.506Z,8.40
2023-03-01T11:36:25.440Z,11.05
2023-03-01T11:38:57.062Z,7.47
2023-03-01T11:41:33.234Z,7.88
2023-03-01T11:44:23.157Z,9.00
2023-03-01T11:47:35.429Z,7.97
2023-03-01T11:50:53.724Z,6.70
2023-03-01T11:53:52.869Z,9.05
2023-03-01T11:56:35.998Z,7.93
2023-03-01T11:59:31.933Z,8.70
2023-03-01T12:02:23.364Z,11.15
2023-03-01T12:05:22.656Z,7.32
2023-03-01T12:08:54.010Z,13.52
2023-03-01T12:11:58.779Z,6.45
2023-03-01T12:14:47.614Z,7.53
2023-03-01T12:17:45.102Z,17.35
2023-03-01T12:20:34.556Z,14.32
2023-03-01T12:23:25.399Z,12.07
2023-03-01T12:26:19.629Z,7.07
2023-03-01T12:29:28.734Z,8.70
2023-03-01T12:32:22.697Z,8.40
2023-03-01T12:35:20.622Z,7.45
2023-03-01T12:38:01.582Z,11.35
2023-03-01T12:40:43.682Z,8.90
2023-03-01T12:43:44.635Z,11.15
2023-03-01T12:46:41.116Z,11.60
2023-03-01T12:49:32.577Z,11.85
2023-03-01T12:52:19.331Z,15.20
2023-03-01T12:54:51.405Z,11.30
2023-03-01T12:57:40.159Z,9.07
2023-03-01T13:00:36.827Z,14.52
2023-03-01T13:03:56.069Z,13.90
2023-03-01T13:07:07.988Z,15.43
2023-03-01T13:10:11.183Z,11.15
2023-03-01T13:12:59.458Z,13.10
2023-03-01T13:15:37.898Z,10.23
2023-03-01T13:18:30.911Z,8.00
2023-03-01T13:21:03.044Z,11.38
2023-03-01T13:23:35.073Z,15.63
2023-03-01T13:26:19.979Z,12.15
2023-03-01T13:28:52.466Z,11.30
2023-03-01T13:31:26.194Z,8.35
2023-03-01T13:34:04.232Z,11.25
2023-03-01T13:36:37.457Z,12.27
2023-03-01T13:39:29.446Z,8.73
2023-03-01T13:42:04.198Z,8.82
2023-03-01T13:44:44.610Z,13.23
2023-03-01T13:47:39.055Z,9.85
2023-03-01T13:50:21.314Z,9.18
2023-03-01T13:53:00.408Z,8.88
2023-03-01T13:55:47.675Z,10.68
2023-03-01T13:58:34.930Z,8.05
2023-03-01T14:01:07.308Z,8.77
2023-03-01T14:03:49.970Z,6.38
2023-03-01T14:06:24.743Z,6.57
2023-03-01T14:09:19.691Z,8.15
2023-03-01T14:12:32.883Z,11.45
2023-03-01T14:15:40.556Z,12.57
2023-03-01T14:18:59.728Z,7.10
2023-03-01T14:21:30.292Z,11.90
2023-03-01T14:24:01.769Z,13.90
2023-03-01T14:26:44.860Z,7.22
2023-03-01T14:29:37.660Z,10.82
2023-03-01T14:32:26.941Z,7.05
2023-03-01T14:34:56.734Z,10.60
2023-03-01T14:37:49.501Z,8.77
2023-03-01T14:43:03.164Z,8.77
2023-03-01T14:45:37.468Z,10.45
2023-03-01T14:48:13.853Z,11.10
2023-03-01T14:50:47.709Z,11.80
2023-03-01T14:53:35.778Z,14.30
2023-03-01T14:56:20.547Z,10.15
2023-03-01T14:58:52.230Z,10.63
2023-03-01T15:01:23.800Z,10.98
2023-03-01T15:03:58.404Z,18.80
2023-03-01T15:06:30.690Z,15.93
2023-03-01T15:11:51.186Z,10.95
2023-03-01T15:14:52.113Z,11.38
2023-03-01T15:17:37.958Z,11.65
2023-03-01T15:20:27.394Z,18.88
2023-03-01T15:23:02.936Z,11.20
2023-03-01T15:25:33.868Z,12.13
2023-03-01T15:28:06.952Z,14.27
2023-03-01T15:30:38.966Z,13.45
2023-03-01T15:33:39.439Z,16.65
2023-03-01T15:36:34.860Z,12.50
2023-03-01T15:39:07.276Z,13.80
2023-03-01T15:42:01.569Z,11.63
2023-03-01T15:44:45.737Z,14.32
2023-03-01T15:47:32.106Z,14.77
2023-03-01T15:50:04.910Z,21.33
2023-03-01T15:52:44.069Z,14.07
2023-03-01T15:55:30.778Z,15.68
2023-03-01T15:58:14.672Z,13.70
2023-03-01T16:01:00.196Z,18.27
2023-03-01T16:03:32.282Z,21.10
2023-03-01T16:06:12.158Z,13.10
2023-03-01T16:08:44.933Z,12.70
2023-03-01T16:11:42.207Z,19.10
2023-03-01T16:14:14.497Z,20.33
2023-03-01T16:16:46.543Z,15.75
2023-03-01T16:19:22.066Z,16.17
2023-03-01T16:21:54.116Z,14.00
2023-03-01T16:24:28.485Z,18.63
2023-03-01T16:27:01.102Z,14.10
2023-03-01T16:29:37.598Z,13.00
2023-03-01T16:32:05.956Z,18.38
2023-03-01T16:34:34.708Z,18.10
2023-03-01T16:39:59.545Z,15.15
2023-03-01T16:42:34.554Z,15.82
2023-03-01T16:45:22.705Z,16.75
2023-03-01T16:47:56.138Z,23.65
2023-03-01T16:50:24.146Z,22.52
2023-03-01T16:53:00.302Z,13.63
2023-03-01T16:55:37.395Z,23.20
2023-03-01T16:58:19.357Z,16.88
2023-03-01T17:00:54.605Z,19.17
2023-03-01T17:03:43.362Z,19.10
2023-03-01T17:06:21.490Z,17.70
2023-03-01T17:08:52.812Z,20.50
2023-03-01T17:11:26.254Z,22.08
2023-03-01T17:14:09.111Z,17.65
2023-03-01T17:16:39.465Z,20.92
2023-03-01T17:19:08.538Z,17.77
2023-03-01T17:21:41.932Z,18.08
2023-03-01T17:24:13.468Z,18.23
2023-03-01T17:29:26.227Z,21.15
2023-03-01T17:32:04.789Z,22.98
2023-03-01T17:34:37.486Z,20.25
2023-03-01T17:37:04.948Z,22.85
2023-03-01T17:39:40.915Z,20.08
2023-03-01T17:42:12.168Z,22.85
2023-03-01T17:44:44.807Z,21.92
2023-03-01T17:47:18.423Z,18.25
2023-03-01T17:49:51.925Z,23.83
2023-03-01T17:52:24.531Z,22.55
2023-03-01T17:57:49.752Z,18.98
2023-03-01T18:00:29.432Z,24.00
2023-03-01T18:02:58.807Z,21.85
2023-03-01T18:05:35.035Z,20.63
2023-03-01T18:08:07.254Z,20.90
2023-03-01T18:10:39.052Z,21.73
2023-03-01T18:13:07.228Z,23.67
2023-03-01T18:15:37.302Z,26.38
2023-03-01T18:18:12.813Z,22.55
2023-03-01T18:20:42.562Z,24.17
2023-03-01T18:23:25.135Z,25.20
2023-03-01T18:26:04.344Z,21.70
2023-03-01T18:28:33.515Z,21.70
2023-03-01T18:31:04.306Z,27.77
2023-03-01T18:33:38.129Z,23.05
2023-03-01T18:36:15.874Z,24.67
2023-03-01T18:38:46.954Z,18.90
2023-03-01T18:41:18.469Z,23.38
2023-03-01T18:43:48.316Z,20.67
2023-03-01T18:46:37.040Z,25.10
2023-03-01T18:49:07.784Z,21.60
2023-03-01T18:51:41.325Z,18.52
2023-03-01T18:54:16.377Z,21.17
2023-03-01T18:57:02.431Z,24.30
2023-03-01T18:59:40.226Z,19.30
2023-03-01T19:02:11.117Z,22.23
2023-03-01T19:04:46.487Z,21.65
2023-03-01T19:07:14.941Z,19.17
2023-03-01T19:09:46.919Z,24.48
2023-03-01T19:12:21.317Z,20.08
2023-03-01T19:14:55.153Z,24.10
2023-03-01T19:17:31.767Z,22.77
2023-03-01T19:20:01.369Z,26.60
2023-03-01T19:22:32.887Z,19.77
2023-03-01T19:25:07.012Z,24.63
2023-03-01T19:27:40.246Z,24.75
2023-03-01T19:30:10.722Z,20.25
2023-03-01T19:32:44.710Z,20.17
2023-03-01T19:35:17.993Z,17.98
2023-03-01T19:37:46.624Z,21.65
2023-03-01T19:40:19.004Z,23.58
2023-03-01T19:42:55.102Z,21.77
2023-03-01T19:45:33.331Z,22.85
2023-03-01T19:48:07.486Z,22.85
2023-03-01T19:50:38.646Z,29.40
2023-03-01T19:53:09.985Z,33.58
2023-03-01T19:55:46.344Z,29.67
2023-03-01T19:58:17.052Z,24.90
2023-03-01T20:00:48.112Z,25.88
2023-03-01T20:03:20.433Z,21.45
2023-03-01T20:05:51.587Z,25.80
2023-03-01T20:08:21.320Z,26.63
2023-03-01T20:10:49.666Z,21.85
2023-03-01T20:13:21.437Z,25.10
2023-03-01T20:15:55.711Z,23.98
2023-03-01T20:18:32.251Z,23.40
2023-03-01T20:21:05.433Z,26.55
2023-03-01T20:23:41.104Z,30.48
2023-03-01T20:26:16.936Z,24.60
2023-03-01T20:28:48.562Z,26.05
2023-03-01T20:31:20.209Z,23.38
2023-03-01T20:33:53.877Z,26.10
2023-03-01T20:36:24.452Z,26.20
2023-03-01T20:38:59.022Z,25.45
2023-03-01T20:41:32.733Z,22.42
2023-03-01T20:44:11.144Z,24.73
2023-03-01T20:46:41.414Z,24.90
2023-03-01T20:49:23.791Z,23.45
2023-03-01T20:51:53.394Z,24.95
2023-03-01T20:54:26.806Z,28.00
2023-03-01T20:56:56.755Z,23.92
2023-03-01T20:59:27.319Z,24.05
2023-03-01T21:04:34.388Z,28.10
2023-03-01T21:07:05.712Z,24.05
2023-03-01T21:09:33.752Z,21.85
2023-03-01T21:12:06.984Z,38.25
2023-03-01T21:14:44.761Z,24.00
2023-03-01T21:20:02.979Z,23.10
2023-03-01T21:22:43.660Z,23.48
2023-03-01T21:25:16.953Z,16.60
2023-03-01T21:27:48.115Z,18.13
2023-03-01T21:30:15.928Z,16.58
2023-03-01T21:32:48.020Z,19.63
2023-03-01T21:35:18.141Z,19.83
2023-03-01T21:37:53.558Z,22.80
2023-03-01T21:40:28.365Z,19.70
2023-03-01T21:42:58.104Z,20.77
2023-03-01T21:45:30.614Z,16.83
2023-03-01T21:50:46.414Z,17.40
2023-03-01T21:53:18.686Z,17.17
2023-03-01T21:55:51.037Z,15.40
2023-03-01T21:58:22.278Z,16.10
2023-03-01T22:03:49.145Z,20.67
2023-03-01T22:06:23.102Z,19.98
2023-03-01T22:09:00.831Z,19.27
2023-03-01T22:11:33.334Z,24.92
2023-03-01T22:14:15.370Z,20.23
2023-03-01T22:16:46.596Z,17.88
2023-03-01T22:19:17.332Z,17.83
2023-03-01T22:21:56.394Z,18.83
2023-03-01T22:24:25.656Z,21.88
2023-03-01T22:26:57.000Z,17.08
2023-03-01T22:29:30.465Z,19.27
2023-03-01T22:31:58.675Z,16.48
2023-03-01T22:34:42.766Z,15.07
2023-03-01T22:37:10.721Z,16.90
2023-03-01T22:39:40.015Z,18.00
2023-03-01T22:42:16.245Z,17.58
2023-03-01T22:44:58.282Z,17.85
2023-03-01T22:47:32.058Z,15.77
2023-03-01T22:50:14.925Z,17.10
2023-03-01T22:52:45.974Z,16.42
2023-03-01T22:55:20.188Z,16.65
2023-03-01T23:00:23.096Z,19.13
2023-03-01T23:02:56.049Z,17.92
2023-03-01T23:05:24.661Z,12.43
2023-03-01T23:07:58.287Z,17.27
2023-03-01T23:10:28.239Z,14.75
2023-03-01T23:12:59.114Z,15.63
2023-03-01T23:15:28.037Z,14.20
2023-03-01T23:17:57.197Z,13.68
2023-03-01T23:20:27.716Z,14.10
2023-03-01T23:23:01.565Z,16.48
2023-03-01T23:25:34.436Z,21.67
2023-03-01T23:28:13.355Z,15.43
2023-03-01T23:30:49.831Z,17.15
2023-03-01T23:33:21.953Z,16.60
2023-03-01T23:35:53.089Z,16.08
2023-03-01T23:38:33.505Z,17.80
2023-03-01T23:41:14.163Z,13.05
2023-03-01T23:43:50.501Z,15.55
2023-03-01T23:46:37.161Z,15.55
2023-03-01T23:49:16.691Z,16.23
2023-03-01T23:51:46.823Z,13.98
2023-03-01T23:54:24.732Z,13.65
2023-03-01T23:59:27.426Z,14.77
